createdAt,value
2018-02-08T00:00:47.280Z,91.30
2018-02-08T00:03:14.940Z,91.90
2018-02-08T00:05:42.589Z,92.10
2018-02-08T00:08:10.294Z,92.00
2018-02-08T00:10:37.936Z,91.50
2018-02-08T00:13:05.587Z,91.40
2018-02-08T00:15:33.705Z,91.20
2018-02-08T00:18:01.372Z,91.50
2018-02-08T00:20:29.832Z,92.30
2018-02-08T00:22:57.541Z,92.20
2018-02-08T00:25:25.181Z,91.60
2018-02-08T00:27:52.854Z,92.00
2018-02-08T00:30:20.556Z,91.90
2018-02-08T00:32:48.495Z,92.10
2018-02-08T00:35:16.146Z,92.20
2018-02-08T00:37:43.843Z,92.70
2018-02-08T00:40:11.508Z,93.00
2018-02-08T00:42:39.174Z,92.60
2018-02-08T00:45:07.369Z,92.00
2018-02-08T00:47:35.007Z,92.30
2018-02-08T00:50:02.657Z,92.50
2018-02-08T00:52:30.366Z,92.80
2018-02-08T00:57:37.156Z,93.40
2018-02-08T01:00:04.785Z,93.10
2018-02-08T01:02:32.419Z,92.70
2018-02-08T01:05:01.844Z,93.10
2018-02-08T01:07:29.472Z,92.90
2018-02-08T01:09:57.058Z,92.80
2018-02-08T01:12:25.701Z,92.70
2018-02-08T01:14:53.749Z,92.30
2018-02-08T01:17:21.401Z,92.30
2018-02-08T01:19:49.102Z,92.20
2018-02-08T01:22:17.166Z,92.40
2018-02-08T01:24:44.813Z,92.20
2018-02-08T01:27:12.527Z,92.10
2018-02-08T01:32:07.831Z,91.80
2018-02-08T01:34:35.528Z,92.50
2018-02-08T01:37:04.020Z,92.40
2018-02-08T01:39:31.670Z,92.60
2018-02-08T01:41:59.430Z,91.90
2018-02-08T01:44:27.926Z,92.40
2018-02-08T01:49:35.142Z,92.20
2018-02-08T01:52:02.801Z,92.50
2018-02-08T01:54:30.447Z,92.10
2018-02-08T01:56:58.152Z,92.00
2018-02-08T01:59:25.796Z,92.10
2018-02-08T02:01:53.441Z,91.20
2018-02-08T02:04:21.134Z,91.20
2018-02-08T02:06:48.769Z,91.70
2018-02-08T02:09:16.422Z,92.10
2018-02-08T02:11:44.156Z,92.70
2018-02-08T02:14:11.831Z,92.90
2018-02-08T02:16:39.455Z,93.10
2018-02-08T02:21:46.264Z,92.90
2018-02-08T02:24:13.959Z,92.90
2018-02-08T02:26:41.603Z,92.40
2018-02-08T02:29:09.246Z,92.60
2018-02-08T02:31:36.948Z,92.90
2018-02-08T02:34:04.596Z,92.90
2018-02-08T02:36:32.240Z,93.80
2018-02-08T02:39:01.057Z,93.70
2018-02-08T02:41:28.696Z,93.70
2018-02-08T02:43:56.381Z,94.30
2018-02-08T02:46:24.046Z,94.60
2018-02-08T02:48:51.917Z,94.90
2018-02-08T02:51:19.414Z,95.10
2018-02-08T02:53:47.120Z,95.50
2018-02-08T02:56:14.757Z,95.70
2018-02-08T02:58:42.405Z,95.90
2018-02-08T03:01:10.125Z,96.10
2018-02-08T03:03:37.752Z,96.70
2018-02-08T03:06:05.397Z,96.60
2018-02-08T03:08:33.106Z,96.70
2018-02-08T03:11:00.759Z,96.70
2018-02-08T03:13:28.938Z,96.40
2018-02-08T03:15:56.641Z,96.20
2018-02-08T03:18:24.285Z,95.60
2018-02-08T03:20:51.932Z,96.10
2018-02-08T03:23:19.643Z,95.70
2018-02-08T03:25:47.295Z,95.70
2018-02-08T03:28:16.687Z,96.20
2018-02-08T03:33:26.874Z,96.10
2018-02-08T03:38:22.968Z,95.60
2018-02-08T03:40:50.599Z,95.20
2018-02-08T03:43:19.052Z,95.00
2018-02-08T03:45:46.694Z,94.90
2018-02-08T03:48:14.340Z,95.40
2018-02-08T03:50:43.000Z,95.20
2018-02-08T03:53:10.608Z,95.00
2018-02-08T03:55:38.253Z,95.10
2018-02-08T03:58:05.966Z,94.90
2018-02-08T04:00:33.616Z,95.40
2018-02-08T04:03:01.261Z,96.10
2018-02-08T04:05:28.977Z,95.40
2018-02-08T04:07:57.381Z,95.10
2018-02-08T04:10:25.058Z,95.10
2018-02-08T04:12:53.602Z,94.40
2018-02-08T04:15:22.010Z,94.40
2018-02-08T04:17:49.712Z,94.10
2018-02-08T04:20:17.968Z,94.50
2018-02-08T04:22:46.908Z,94.90
2018-02-08T04:25:14.543Z,94.40
2018-02-08T04:27:42.256Z,93.80
2018-02-08T04:30:09.907Z,94.00
2018-02-08T04:32:37.547Z,93.80
2018-02-08T04:35:05.366Z,94.00
2018-02-08T04:37:33.297Z,93.70
2018-02-08T04:40:12.732Z,93.70
2018-02-08T04:42:52.256Z,94.30
2018-02-08T04:50:33.962Z,95.10
2018-02-08T04:53:02.565Z,95.40
2018-02-08T04:55:31.241Z,95.10
2018-02-08T04:57:58.961Z,94.60
2018-02-08T05:00:26.615Z,94.20
2018-02-08T05:05:40.437Z,94.50
2018-02-08T05:08:08.150Z,94.60
2018-02-08T05:10:35.806Z,94.60
2018-02-08T05:13:03.444Z,94.60
2018-02-08T05:15:31.195Z,94.30
2018-02-08T05:17:58.832Z,94.40
2018-02-08T05:20:26.477Z,94.70
2018-02-08T05:25:21.877Z,93.70
2018-02-08T05:27:49.504Z,92.80
2018-02-08T05:30:17.212Z,92.50
2018-02-08T05:32:44.893Z,92.00
2018-02-08T05:35:12.576Z,92.20
2018-02-08T05:37:40.306Z,92.30
2018-02-08T05:40:07.953Z,91.90
2018-02-08T05:42:35.628Z,92.00
2018-02-08T05:45:03.325Z,92.20
2018-02-08T05:47:31.004Z,91.80
2018-02-08T05:49:58.672Z,92.20
2018-02-08T05:52:26.392Z,92.10
2018-02-08T05:54:54.042Z,92.40
2018-02-08T05:57:21.684Z,91.80
2018-02-08T05:59:49.390Z,91.30
2018-02-08T06:02:17.357Z,91.10
2018-02-08T06:04:45.068Z,91.10
2018-02-08T06:07:12.772Z,91.80
2018-02-08T06:09:41.067Z,95.40
2018-02-08T06:14:41.482Z,90.40
2018-02-08T06:17:09.119Z,89.60
2018-02-08T06:22:05.817Z,91.40
2018-02-08T06:24:33.465Z,92.00
2018-02-08T06:29:40.273Z,93.00
2018-02-08T06:32:07.921Z,92.70
2018-02-08T06:34:35.578Z,92.80
2018-02-08T06:37:04.228Z,92.70
2018-02-08T06:39:31.876Z,92.80
2018-02-08T06:41:59.516Z,93.40
2018-02-08T06:44:27.229Z,93.00
2018-02-08T06:46:54.885Z,92.90
2018-02-08T06:51:50.241Z,92.90
2018-02-08T06:54:17.884Z,91.90
2018-02-08T06:56:46.149Z,92.50
2018-02-08T06:59:13.853Z,92.40
2018-02-08T07:01:42.329Z,92.30
2018-02-08T07:04:12.371Z,92.60
2018-02-08T07:06:40.046Z,92.50
2018-02-08T07:11:35.365Z,92.60
2018-02-08T07:14:03.064Z,92.90
2018-02-08T07:16:30.708Z,92.70
2018-02-08T07:18:59.207Z,92.50
2018-02-08T07:21:26.913Z,92.90
2018-02-08T07:23:54.558Z,92.50
2018-02-08T07:26:22.203Z,92.00
2018-02-08T07:28:49.896Z,92.50
2018-02-08T07:31:17.537Z,92.20
2018-02-08T07:33:45.215Z,92.30
2018-02-08T07:36:14.116Z,92.60
2018-02-08T07:38:41.728Z,92.70
2018-02-08T07:41:09.895Z,93.00
2018-02-08T07:43:37.535Z,93.00
2018-02-08T07:46:05.535Z,93.20
2018-02-08T07:48:33.185Z,93.20
2018-02-08T07:51:00.881Z,92.40
2018-02-08T07:53:28.526Z,93.00
2018-02-08T08:01:03.265Z,92.70
2018-02-08T08:03:30.896Z,93.00
2018-02-08T08:05:59.553Z,93.70
2018-02-08T08:08:27.196Z,94.20
2018-02-08T08:10:54.858Z,94.90
2018-02-08T08:13:24.041Z,94.60
2018-02-08T08:15:52.077Z,94.70
2018-02-08T08:18:25.645Z,95.80
2018-02-08T08:20:53.292Z,95.50
2018-02-08T08:23:22.838Z,95.90
2018-02-08T08:25:48.645Z,96.00
2018-02-08T08:28:16.324Z,95.10
2018-02-08T08:30:43.969Z,94.80
2018-02-08T08:33:11.677Z,94.70
2018-02-08T08:35:39.329Z,94.70
2018-02-08T08:38:06.981Z,94.60
2018-02-08T08:40:34.721Z,94.50
2018-02-08T08:43:03.290Z,94.10
2018-02-08T08:47:58.641Z,93.10
2018-02-08T08:50:26.291Z,93.90
2018-02-08T08:52:53.941Z,94.10
2018-02-08T08:55:21.644Z,92.70
2018-02-08T08:57:49.290Z,93.00
2018-02-08T09:00:16.959Z,92.70
2018-02-08T09:02:44.660Z,92.60
2018-02-08T09:05:12.321Z,92.60
2018-02-08T09:07:40.528Z,92.00
2018-02-08T09:10:08.238Z,91.90
2018-02-08T09:12:35.905Z,92.00
2018-02-08T09:15:03.551Z,91.70
2018-02-08T09:17:31.281Z,91.40
2018-02-08T09:19:58.933Z,91.40
2018-02-08T09:25:06.745Z,91.10
2018-02-08T09:27:34.393Z,90.40
2018-02-08T09:30:02.028Z,90.40
2018-02-08T09:32:29.744Z,89.60
2018-02-08T09:34:57.425Z,89.50
2018-02-08T09:37:25.078Z,89.90
2018-02-08T09:39:52.793Z,90.50
2018-02-08T09:42:20.433Z,88.70
2018-02-08T09:44:48.081Z,89.10
2018-02-08T09:49:56.283Z,89.00
2018-02-08T09:55:05.116Z,88.00
2018-02-08T09:57:32.816Z,87.50
2018-02-08T10:00:00.462Z,88.10
2018-02-08T10:02:28.101Z,87.80
2018-02-08T10:04:55.812Z,87.70
2018-02-08T10:07:23.555Z,88.10
2018-02-08T10:09:52.047Z,88.10
2018-02-08T10:12:19.708Z,87.40
2018-02-08T10:14:47.400Z,87.50
2018-02-08T10:17:15.055Z,86.40
2018-02-08T10:19:42.766Z,85.90
2018-02-08T10:22:10.396Z,87.90
2018-02-08T10:24:38.242Z,86.60
2018-02-08T10:27:05.985Z,86.00
2018-02-08T10:29:33.698Z,84.90
2018-02-08T10:32:01.341Z,86.30
2018-02-08T10:34:29.051Z,86.40
2018-02-08T10:36:57.716Z,85.40
2018-02-08T10:39:25.353Z,85.50
2018-02-08T10:41:53.057Z,85.50
2018-02-08T10:44:20.693Z,84.10
2018-02-08T10:46:48.786Z,84.50
2018-02-08T10:49:16.315Z,86.10
2018-02-08T10:51:44.401Z,85.20
2018-02-08T10:54:12.050Z,84.00
2018-02-08T10:56:39.756Z,83.60
2018-02-08T10:59:07.559Z,83.80
2018-02-08T11:01:35.196Z,82.60
2018-02-08T11:04:02.901Z,82.90
2018-02-08T11:06:30.537Z,83.00
2018-02-08T11:08:58.252Z,83.10
2018-02-08T11:11:25.950Z,82.20
2018-02-08T11:13:53.593Z,81.30
2018-02-08T11:16:21.493Z,80.90
2018-02-08T11:21:30.292Z,81.30
2018-02-08T11:23:58.033Z,80.00
2018-02-08T11:26:25.685Z,78.70
2018-02-08T11:28:53.319Z,79.50
2018-02-08T11:31:21.044Z,81.50
2018-02-08T11:33:49.573Z,80.90
2018-02-08T11:36:17.227Z,80.00
2018-02-08T11:38:44.921Z,79.30
2018-02-08T11:41:12.567Z,79.40
2018-02-08T11:43:40.213Z,75.90
2018-02-08T11:46:07.999Z,74.00
2018-02-08T11:48:35.642Z,73.10
2018-02-08T11:51:03.293Z,73.70
2018-02-08T11:53:31.013Z,75.90
2018-02-08T11:55:58.660Z,72.30
2018-02-08T12:00:53.990Z,71.90
2018-02-08T12:03:21.627Z,71.70
2018-02-08T12:08:17.008Z,71.10
2018-02-08T12:10:44.653Z,73.00
2018-02-08T12:13:12.293Z,72.80
2018-02-08T12:15:40.036Z,71.90
2018-02-08T12:18:07.732Z,70.80
2018-02-08T12:20:35.298Z,73.30
2018-02-08T12:23:02.988Z,72.90
2018-02-08T12:25:30.641Z,72.20
2018-02-08T12:27:58.296Z,73.40
2018-02-08T12:30:25.984Z,77.00
2018-02-08T12:32:53.629Z,74.20
2018-02-08T12:35:21.272Z,70.60
2018-02-08T12:37:49.613Z,69.80
2018-02-08T12:40:17.257Z,70.50
2018-02-08T12:42:44.885Z,71.60
2018-02-08T12:47:52.522Z,73.40
2018-02-08T12:50:21.200Z,71.70
2018-02-08T12:52:48.889Z,73.60
2018-02-08T12:55:16.538Z,73.50
2018-02-08T12:57:45.141Z,70.90
2018-02-08T13:00:12.804Z,68.90
2018-02-08T13:02:40.444Z,62.80
2018-02-08T13:05:08.989Z,64.30
2018-02-08T13:07:36.638Z,63.40
2018-02-08T13:10:04.278Z,67.10
2018-02-08T13:12:31.987Z,59.60
2018-02-08T13:14:59.658Z,63.30
2018-02-08T13:17:27.304Z,63.20
2018-02-08T13:19:54.999Z,63.90
2018-02-08T13:22:22.644Z,66.00
2018-02-08T13:24:50.289Z,66.80
2018-02-08T13:27:18.008Z,66.20
2018-02-08T13:29:45.749Z,66.20
2018-02-08T13:32:14.198Z,64.70
2018-02-08T13:37:09.580Z,68.30
2018-02-08T13:39:38.069Z,68.70
2018-02-08T13:42:10.625Z,67.50
2018-02-08T13:44:38.266Z,68.10
2018-02-08T13:52:29.235Z,66.90
2018-02-08T14:03:02.395Z,66.40
2018-02-08T14:05:30.133Z,66.50
2018-02-08T14:07:57.809Z,67.60
2018-02-08T14:10:25.448Z,68.00
2018-02-08T14:12:53.170Z,68.20
2018-02-08T14:15:20.826Z,67.80
2018-02-08T14:20:16.176Z,68.10
2018-02-08T14:22:43.844Z,68.60
2018-02-08T14:25:11.478Z,68.70
2018-02-08T14:27:39.195Z,68.40
2018-02-08T14:30:06.816Z,68.50
2018-02-08T14:32:34.464Z,67.70
2018-02-08T14:35:03.055Z,68.30
2018-02-08T14:37:30.709Z,69.50
2018-02-08T14:39:58.335Z,69.60
2018-02-08T14:42:26.025Z,70.70
2018-02-08T14:44:53.663Z,71.20
2018-02-08T14:47:21.298Z,72.10
2018-02-08T14:49:49.013Z,71.10
2018-02-08T14:52:16.925Z,70.90
2018-02-08T14:54:44.569Z,72.00
2018-02-08T14:57:12.266Z,72.40
2018-02-08T14:59:39.912Z,72.10
2018-02-08T15:02:07.558Z,72.20
2018-02-08T15:04:35.247Z,72.00
2018-02-08T15:07:02.891Z,73.10
2018-02-08T15:09:30.542Z,72.00
2018-02-08T15:11:59.223Z,71.60
2018-02-08T15:14:26.847Z,71.90
2018-02-08T15:16:54.488Z,71.30
2018-02-08T15:19:22.229Z,72.00
2018-02-08T15:21:53.578Z,71.90
2018-02-08T15:27:00.377Z,70.10
2018-02-08T15:29:28.010Z,69.40
2018-02-08T15:31:55.652Z,69.40
2018-02-08T15:37:04.640Z,69.40
2018-02-08T15:39:32.332Z,70.20
2018-02-08T15:42:00.830Z,69.60
2018-02-08T15:44:28.469Z,70.50
2018-02-08T15:46:56.167Z,71.40
2018-02-08T15:49:23.802Z,72.20
2018-02-08T15:51:51.463Z,73.20
2018-02-08T15:54:20.171Z,73.50
2018-02-08T15:56:47.806Z,73.30
2018-02-08T15:59:15.444Z,73.80
2018-02-08T16:01:43.153Z,74.50
2018-02-08T16:04:11.511Z,75.00
2018-02-08T16:06:39.152Z,74.70
2018-02-08T16:09:06.871Z,76.20
2018-02-08T16:11:34.517Z,77.20
2018-02-08T16:14:02.229Z,76.90
2018-02-08T16:16:29.930Z,77.70
2018-02-08T16:18:57.578Z,78.50
2018-02-08T16:21:25.221Z,79.40
2018-02-08T16:23:52.935Z,79.50
2018-02-08T16:26:20.572Z,80.00
2018-02-08T16:28:48.213Z,80.70
2018-02-08T16:31:16.749Z,80.90
2018-02-08T16:33:44.392Z,82.10
2018-02-08T16:36:12.078Z,82.40
2018-02-08T16:41:07.442Z,82.40
2018-02-08T16:43:35.978Z,82.90
2018-02-08T16:46:03.680Z,84.30
2018-02-08T16:48:31.836Z,83.60
2018-02-08T16:51:00.654Z,83.60
2018-02-08T16:53:28.321Z,83.70
2018-02-08T16:55:55.960Z,84.60
2018-02-08T17:01:03.741Z,85.30
2018-02-08T17:05:59.397Z,85.20
2018-02-08T17:08:27.096Z,85.20
2018-02-08T17:10:54.742Z,85.10
2018-02-08T17:13:22.377Z,85.20
2018-02-08T17:15:50.096Z,85.30
2018-02-08T17:18:18.196Z,85.00
2018-02-08T17:20:45.842Z,85.20
2018-02-08T17:25:41.310Z,85.40
2018-02-08T17:28:08.947Z,85.40
2018-02-08T17:30:36.733Z,85.70
2018-02-08T17:33:04.390Z,85.50
2018-02-08T17:35:32.036Z,85.50
2018-02-08T17:37:59.728Z,85.40
2018-02-08T17:43:07.703Z,85.90
2018-02-08T17:45:35.349Z,85.70
2018-02-08T17:50:30.689Z,85.00
2018-02-08T17:52:59.237Z,85.60
2018-02-08T17:55:26.881Z,86.50
2018-02-08T17:57:54.588Z,85.90
2018-02-08T18:00:22.247Z,86.20
2018-02-08T18:02:49.918Z,86.40
2018-02-08T18:05:17.629Z,86.40
2018-02-08T18:07:45.266Z,85.70
2018-02-08T18:10:12.927Z,86.10
2018-02-08T18:12:40.610Z,86.40
2018-02-08T18:15:08.296Z,86.10
2018-02-08T18:17:35.944Z,86.20
2018-02-08T18:22:35.426Z,86.20
2018-02-08T18:25:03.044Z,85.70
2018-02-08T18:27:30.748Z,85.80
2018-02-08T18:29:58.410Z,86.10
2018-02-08T18:32:27.334Z,86.30
2018-02-08T18:34:54.953Z,86.70
2018-02-08T18:37:23.430Z,86.60
2018-02-08T18:39:51.098Z,86.60
2018-02-08T18:42:18.776Z,86.30
2018-02-08T18:44:46.415Z,86.40
2018-02-08T18:47:14.916Z,85.70
2018-02-08T18:49:42.647Z,85.80
2018-02-08T18:52:10.794Z,85.70
2018-02-08T18:54:39.148Z,86.10
2018-02-08T18:57:06.818Z,85.90
2018-02-08T19:04:41.955Z,86.10
2018-02-08T19:07:10.436Z,86.00
2018-02-08T19:09:38.952Z,85.30
2018-02-08T19:12:06.635Z,85.30
2018-02-08T19:14:34.378Z,85.20
2018-02-08T19:19:29.695Z,85.60
2018-02-08T19:21:57.330Z,84.60
2018-02-08T19:24:24.990Z,84.40
2018-02-08T19:26:53.456Z,84.20
2018-02-08T19:29:21.090Z,85.00
2018-02-08T19:31:49.240Z,85.70
2018-02-08T19:34:16.933Z,86.10
2018-02-08T19:36:44.569Z,85.60
2018-02-08T19:39:12.302Z,85.60
2018-02-08T19:44:08.469Z,84.70
2018-02-08T19:46:36.113Z,83.60
2018-02-08T19:49:03.888Z,83.40
2018-02-08T19:51:31.522Z,83.10
2018-02-08T19:53:59.223Z,83.80
2018-02-08T19:56:26.896Z,83.40
2018-02-08T19:58:55.752Z,83.70
2018-02-08T20:01:23.506Z,83.80
2018-02-08T20:03:51.880Z,83.90
2018-02-08T20:06:19.489Z,84.10
2018-02-08T20:08:47.160Z,84.90
2018-02-08T20:11:14.845Z,84.10
2018-02-08T20:13:43.346Z,84.50
2018-02-08T20:18:38.706Z,83.30
2018-02-08T20:21:06.352Z,83.40
2018-02-08T20:23:34.011Z,84.70
2018-02-08T20:28:40.820Z,86.80
2018-02-08T20:33:49.587Z,86.90
2018-02-08T20:36:17.255Z,86.80
2018-02-08T20:41:27.914Z,86.80
2018-02-08T20:46:34.856Z,87.00
2018-02-08T20:49:02.505Z,86.90
2018-02-08T20:51:30.131Z,86.80
2018-02-08T20:53:57.845Z,87.10
2018-02-08T20:56:25.730Z,86.60
2018-02-08T20:58:53.743Z,87.20
2018-02-08T21:01:21.402Z,87.40
2018-02-08T21:03:49.263Z,87.40
2018-02-08T21:06:16.907Z,87.50
2018-02-08T21:08:44.617Z,87.20
2018-02-08T21:11:12.261Z,87.80
2018-02-08T21:16:07.642Z,88.00
2018-02-08T21:18:35.923Z,87.30
2018-02-08T21:21:03.585Z,86.90
2018-02-08T21:23:31.289Z,87.50
2018-02-08T21:25:58.933Z,87.40
2018-02-08T21:28:26.582Z,86.50
2018-02-08T21:30:54.279Z,86.90
2018-02-08T21:33:21.918Z,87.00
2018-02-08T21:35:49.563Z,87.00
2018-02-08T21:38:17.280Z,86.90
2018-02-08T21:40:44.914Z,86.60
2018-02-08T21:43:12.554Z,86.20
2018-02-08T21:45:40.316Z,85.80
2018-02-08T21:48:07.933Z,85.10
2018-02-08T21:50:37.786Z,85.30
2018-02-08T21:53:05.334Z,85.40
2018-02-08T21:55:33.219Z,86.20
2018-02-08T21:58:00.637Z,86.70
2018-02-08T22:00:28.431Z,86.70
2018-02-08T22:02:56.260Z,87.10
2018-02-08T22:05:23.838Z,87.70
2018-02-08T22:12:58.341Z,87.60
2018-02-08T22:15:25.981Z,87.00
2018-02-08T22:20:21.325Z,87.60
2018-02-08T22:22:50.755Z,88.00
2018-02-08T22:28:00.310Z,87.10
2018-02-08T22:30:28.180Z,87.70
2018-02-08T22:32:55.835Z,86.80
2018-02-08T22:35:23.660Z,85.40
2018-02-08T22:37:51.306Z,85.10
2018-02-08T22:40:18.942Z,84.60
2018-02-08T22:42:46.698Z,85.40
2018-02-08T22:45:14.281Z,85.30
2018-02-08T22:47:41.918Z,85.10
2018-02-08T22:50:09.612Z,84.10
2018-02-08T22:52:37.246Z,83.10
2018-02-08T22:55:06.352Z,84.90
2018-02-08T22:57:34.092Z,85.20
2018-02-08T23:00:01.746Z,84.80
2018-02-08T23:02:29.388Z,86.30
2018-02-08T23:04:57.144Z,88.50
2018-02-08T23:07:28.023Z,86.10
2018-02-08T23:09:57.287Z,85.40
2018-02-08T23:12:25.312Z,91.80
2018-02-08T23:14:54.680Z,86.00
2018-02-08T23:17:22.289Z,86.40
2018-02-08T23:19:51.754Z,85.70
2018-02-08T23:22:19.380Z,85.40
2018-02-08T23:24:47.080Z,84.40
2018-02-08T23:27:14.731Z,84.20
2018-02-08T23:29:42.398Z,84.20
2018-02-08T23:32:10.132Z,83.70
2018-02-08T23:34:37.772Z,83.20
2018-02-08T23:39:37.490Z,83.70
2018-02-08T23:42:05.549Z,84.20
2018-02-08T23:44:33.193Z,84.40
2018-02-08T23:47:01.785Z,83.50
2018-02-08T23:49:29.426Z,83.80
2018-02-08T23:54:36.225Z,86.30
2018-02-08T23:57:05.959Z,86.90
